sensor_id;sensor_type;location;lat;lon;timestamp;pressure;altitude;pressure_sealevel;temperature;humidity
9695;BME280;4690;52.422;13.486;2022-12-13T00:04:17;101003.84;;;0.94;63.61
9695;BME280;4690;52.422;13.486;2022-12-13T00:06:43;101003.97;;;0.93;63.71
9695;BME280;4690;52.422;13.486;2022-12-13T00:09:14;101011.66;;;0.79;63.37
9695;BME280;4690;52.422;13.486;2022-12-13T00:11:41;101013.34;;;0.80;63.53
9695;BME280;4690;52.422;13.486;2022-12-13T00:14:07;101010.63;;;0.80;64.38
9695;BME280;4690;52.422;13.486;2022-12-13T00:16:33;101008.78;;;0.81;64.01
9695;BME280;4690;52.422;13.486;2022-12-13T00:18:59;101010.50;;;0.82;64.06
9695;BME280;4690;52.422;13.486;2022-12-13T00:21:29;101006.63;;;0.84;63.47
9695;BME280;4690;52.422;13.486;2022-12-13T00:23:56;101001.91;;;0.86;63.51
9695;BME280;4690;52.422;13.486;2022-12-13T00:26:26;100995.53;;;0.87;63.46
9695;BME280;4690;52.422;13.486;2022-12-13T00:28:53;100991.97;;;0.87;64.18
9695;BME280;4690;52.422;13.486;2022-12-13T00:31:22;100989.81;;;0.91;64.44
9695;BME280;4690;52.422;13.486;2022-12-13T00:33:48;100987.66;;;0.94;64.01
9695;BME280;4690;52.422;13.486;2022-12-13T00:36:15;100989.72;;;1.00;63.89
9695;BME280;4690;52.422;13.486;2022-12-13T00:38:40;100984.47;;;0.99;64.06
9695;BME280;4690;52.422;13.486;2022-12-13T00:41:16;100980.56;;;0.93;64.74
9695;BME280;4690;52.422;13.486;2022-12-13T00:43:43;100983.56;;;0.90;63.98
9695;BME280;4690;52.422;13.486;2022-12-13T00:46:15;100980.56;;;0.93;64.05
9695;BME280;4690;52.422;13.486;2022-12-13T00:48:42;100975.75;;;1.05;63.50
9695;BME280;4690;52.422;13.486;2022-12-13T00:51:11;100971.88;;;1.07;64.00
9695;BME280;4690;52.422;13.486;2022-12-13T00:53:37;100972.50;;;1.01;63.76
9695;BME280;4690;52.422;13.486;2022-12-13T00:56:08;100968.97;;;1.01;64.01
9695;BME280;4690;52.422;13.486;2022-12-13T00:58:34;100967.59;;;0.97;64.22
9695;BME280;4690;52.422;13.486;2022-12-13T01:01:07;100966.38;;;0.91;64.85
9695;BME280;4690;52.422;13.486;2022-12-13T01:03:33;100970.97;;;0.73;65.06
9695;BME280;4690;52.422;13.486;2022-12-13T01:05:59;100975.31;;;0.48;66.05
9695;BME280;4690;52.422;13.486;2022-12-13T01:08:26;100974.84;;;0.52;66.54
9695;BME280;4690;52.422;13.486;2022-12-13T01:10:53;100979.63;;;0.58;66.32
9695;BME280;4690;52.422;13.486;2022-12-13T01:13:19;100988.03;;;0.55;66.20
9695;BME280;4690;52.422;13.486;2022-12-13T01:15:46;100981.38;;;0.67;66.34
9695;BME280;4690;52.422;13.486;2022-12-13T01:18:14;100974.66;;;0.72;66.21
9695;BME280;4690;52.422;13.486;2022-12-13T01:20:55;100973.72;;;0.81;64.92
9695;BME280;4690;52.422;13.486;2022-12-13T01:23:22;100972.03;;;0.80;64.12
9695;BME280;4690;52.422;13.486;2022-12-13T01:25:48;100977.44;;;0.80;64.61
9695;BME280;4690;52.422;13.486;2022-12-13T01:28:14;100971.78;;;0.91;64.91
9695;BME280;4690;52.422;13.486;2022-12-13T01:30:39;100970.81;;;0.74;63.92
9695;BME280;4690;52.422;13.486;2022-12-13T01:33:05;100974.53;;;0.55;64.82
9695;BME280;4690;52.422;13.486;2022-12-13T01:35:33;100968.50;;;0.61;65.45
9695;BME280;4690;52.422;13.486;2022-12-13T01:37:59;100970.22;;;0.62;65.06
9695;BME280;4690;52.422;13.486;2022-12-13T01:40:27;100972.09;;;0.44;65.62
9695;BME280;4690;52.422;13.486;2022-12-13T01:42:53;100978.91;;;0.56;65.52
9695;BME280;4690;52.422;13.486;2022-12-13T01:45:26;100971.53;;;0.58;66.34
9695;BME280;4690;52.422;13.486;2022-12-13T01:48:03;100971.75;;;0.65;66.72
9695;BME280;4690;52.422;13.486;2022-12-13T01:50:38;100976.06;;;0.58;67.09
9695;BME280;4690;52.422;13.486;2022-12-13T01:53:08;100966.38;;;0.47;67.64
9695;BME280;4690;52.422;13.486;2022-12-13T01:55:38;100957.28;;;0.66;66.53
9695;BME280;4690;52.422;13.486;2022-12-13T01:58:05;100965.81;;;0.79;66.93
9695;BME280;4690;52.422;13.486;2022-12-13T02:00:34;100962.94;;;0.81;66.77
9695;BME280;4690;52.422;13.486;2022-12-13T02:03:01;100966.69;;;0.88;66.43
9695;BME280;4690;52.422;13.486;2022-12-13T02:06:04;100959.34;;;0.72;67.38
9695;BME280;4690;52.422;13.486;2022-12-13T02:08:32;100955.09;;;0.70;67.56
9695;BME280;4690;52.422;13.486;2022-12-13T02:11:00;100964.72;;;0.72;67.08
9695;BME280;4690;52.422;13.486;2022-12-13T02:13:27;100960.94;;;0.83;66.83
9695;BME280;4690;52.422;13.486;2022-12-13T02:27:39;100959.66;;;0.69;66.45
9695;BME280;4690;52.422;13.486;2022-12-13T02:30:46;100956.63;;;0.72;66.27
9695;BME280;4690;52.422;13.486;2022-12-13T02:36:32;100953.28;;;0.52;68.63
9695;BME280;4690;52.422;13.486;2022-12-13T02:39:27;100960.53;;;0.52;70.08
9695;BME280;4690;52.422;13.486;2022-12-13T02:42:04;100957.44;;;0.47;70.33
9695;BME280;4690;52.422;13.486;2022-12-13T02:44:42;100947.56;;;0.55;69.70
9695;BME280;4690;52.422;13.486;2022-12-13T02:47:22;100948.41;;;0.74;69.95
9695;BME280;4690;52.422;13.486;2022-12-13T02:49:57;100945.31;;;0.69;70.28
9695;BME280;4690;52.422;13.486;2022-12-13T02:52:28;100947.50;;;0.65;70.15
9695;BME280;4690;52.422;13.486;2022-12-13T02:54:56;100951.38;;;0.27;72.30
9695;BME280;4690;52.422;13.486;2022-12-13T02:57:35;100945.59;;;0.39;72.28
9695;BME280;4690;52.422;13.486;2022-12-13T03:00:10;100947.16;;;0.24;73.15
9695;BME280;4690;52.422;13.486;2022-12-13T03:11:52;100937.41;;;0.49;72.04
9695;BME280;4690;52.422;13.486;2022-12-13T03:14:55;100947.06;;;0.34;72.74
9695;BME280;4690;52.422;13.486;2022-12-13T03:17:24;100943.00;;;0.30;73.79
9695;BME280;4690;52.422;13.486;2022-12-13T03:19:52;100946.38;;;0.32;73.31
9695;BME280;4690;52.422;13.486;2022-12-13T03:22:18;100939.09;;;0.50;73.80
9695;BME280;4690;52.422;13.486;2022-12-13T03:24:45;100937.56;;;0.48;73.19
9695;BME280;4690;52.422;13.486;2022-12-13T03:27:11;100944.06;;;0.37;73.96
9695;BME280;4690;52.422;13.486;2022-12-13T03:29:38;100940.88;;;0.41;73.70
9695;BME280;4690;52.422;13.486;2022-12-13T03:32:04;100939.97;;;0.33;74.46
9695;BME280;4690;52.422;13.486;2022-12-13T03:34:30;100937.69;;;0.20;74.43
9695;BME280;4690;52.422;13.486;2022-12-13T03:36:56;100928.66;;;0.29;74.94
9695;BME280;4690;52.422;13.486;2022-12-13T03:39:21;100928.91;;;0.18;75.57
9695;BME280;4690;52.422;13.486;2022-12-13T03:41:48;100930.28;;;0.22;75.33
9695;BME280;4690;52.422;13.486;2022-12-13T03:44:14;100926.38;;;0.34;74.80
9695;BME280;4690;52.422;13.486;2022-12-13T03:46:40;100922.59;;;0.27;75.60
9695;BME280;4690;52.422;13.486;2022-12-13T03:49:06;100923.50;;;0.36;75.22
9695;BME280;4690;52.422;13.486;2022-12-13T03:51:32;100922.44;;;0.29;75.10
9695;BME280;4690;52.422;13.486;2022-12-13T03:53:58;100922.91;;;0.24;75.08
9695;BME280;4690;52.422;13.486;2022-12-13T03:56:24;100927.44;;;0.24;75.48
9695;BME280;4690;52.422;13.486;2022-12-13T03:58:50;100924.03;;;0.21;75.05
9695;BME280;4690;52.422;13.486;2022-12-13T04:01:17;100919.97;;;0.35;75.23
9695;BME280;4690;52.422;13.486;2022-12-13T04:03:45;100914.94;;;0.40;74.85
9695;BME280;4690;52.422;13.486;2022-12-13T04:06:12;100922.19;;;0.40;74.44
9695;BME280;4690;52.422;13.486;2022-12-13T04:08:39;100925.13;;;0.29;75.06
9695;BME280;4690;52.422;13.486;2022-12-13T04:11:06;100920.09;;;0.34;75.51
9695;BME280;4690;52.422;13.486;2022-12-13T04:13:52;100921.50;;;0.38;74.66
9695;BME280;4690;52.422;13.486;2022-12-13T04:16:18;100918.81;;;0.38;74.73
9695;BME280;4690;52.422;13.486;2022-12-13T04:18:44;100919.59;;;0.56;74.02
9695;BME280;4690;52.422;13.486;2022-12-13T04:21:10;100918.75;;;0.56;74.14
9695;BME280;4690;52.422;13.486;2022-12-13T04:23:35;100916.38;;;0.53;74.30
9695;BME280;4690;52.422;13.486;2022-12-13T04:26:01;100920.16;;;0.42;74.33
9695;BME280;4690;52.422;13.486;2022-12-13T04:28:27;100929.50;;;0.30;74.44
9695;BME280;4690;52.422;13.486;2022-12-13T04:30:53;100928.19;;;0.34;75.36
9695;BME280;4690;52.422;13.486;2022-12-13T04:33:18;100925.09;;;0.47;74.99
9695;BME280;4690;52.422;13.486;2022-12-13T04:35:46;100926.88;;;0.38;74.67
9695;BME280;4690;52.422;13.486;2022-12-13T04:38:12;100921.88;;;0.43;74.28
9695;BME280;4690;52.422;13.486;2022-12-13T04:40:38;100926.88;;;0.38;74.90
9695;BME280;4690;52.422;13.486;2022-12-13T04:43:04;100915.47;;;0.44;73.98
9695;BME280;4690;52.422;13.486;2022-12-13T04:45:30;100926.22;;;0.18;74.58
9695;BME280;4690;52.422;13.486;2022-12-13T04:47:55;100927.44;;;0.24;74.78
9695;BME280;4690;52.422;13.486;2022-12-13T04:50:21;100926.69;;;0.31;74.60
9695;BME280;4690;52.422;13.486;2022-12-13T04:52:47;100931.56;;;0.36;74.49
9695;BME280;4690;52.422;13.486;2022-12-13T04:55:13;100926.44;;;0.42;74.37
9695;BME280;4690;52.422;13.486;2022-12-13T04:57:39;100926.78;;;0.48;73.42
9695;BME280;4690;52.422;13.486;2022-12-13T05:00:10;100925.28;;;0.27;74.04
9695;BME280;4690;52.422;13.486;2022-12-13T05:02:38;100933.28;;;0.19;74.38
9695;BME280;4690;52.422;13.486;2022-12-13T05:05:10;100936.59;;;0.31;74.28
9695;BME280;4690;52.422;13.486;2022-12-13T05:07:36;100933.22;;;0.29;73.07
9695;BME280;4690;52.422;13.486;2022-12-13T05:10:02;100932.84;;;0.24;74.13
9695;BME280;4690;52.422;13.486;2022-12-13T05:12:28;100927.75;;;0.20;74.23
9695;BME280;4690;52.422;13.486;2022-12-13T05:14:54;100933.00;;;0.04;74.35
9695;BME280;4690;52.422;13.486;2022-12-13T05:17:20;100933.59;;;0.16;74.21
9695;BME280;4690;52.422;13.486;2022-12-13T05:19:46;100933.88;;;0.31;73.46
9695;BME280;4690;52.422;13.486;2022-12-13T05:22:12;100929.19;;;0.33;72.84
9695;BME280;4690;52.422;13.486;2022-12-13T05:24:42;100926.75;;;0.21;73.66
9695;BME280;4690;52.422;13.486;2022-12-13T05:27:10;100925.91;;;0.21;73.48
9695;BME280;4690;52.422;13.486;2022-12-13T05:29:37;100929.97;;;0.25;72.66
9695;BME280;4690;52.422;13.486;2022-12-13T05:32:03;100929.38;;;0.31;73.06
9695;BME280;4690;52.422;13.486;2022-12-13T05:34:29;100922.13;;;0.14;73.86
9695;BME280;4690;52.422;13.486;2022-12-13T05:36:54;100926.75;;;0.21;73.95
9695;BME280;4690;52.422;13.486;2022-12-13T05:39:20;100924.44;;;0.27;73.73
9695;BME280;4690;52.422;13.486;2022-12-13T05:41:46;100918.47;;;0.41;72.84
9695;BME280;4690;52.422;13.486;2022-12-13T05:44:12;100923.00;;;0.58;72.60
9695;BME280;4690;52.422;13.486;2022-12-13T05:46:40;100927.34;;;0.51;72.53
9695;BME280;4690;52.422;13.486;2022-12-13T05:49:06;100918.69;;;0.48;71.90
9695;BME280;4690;52.422;13.486;2022-12-13T05:51:31;100918.63;;;0.39;72.48
9695;BME280;4690;52.422;13.486;2022-12-13T05:53:57;100916.81;;;0.40;72.66
9695;BME280;4690;52.422;13.486;2022-12-13T05:56:23;100919.91;;;0.53;72.17
9695;BME280;4690;52.422;13.486;2022-12-13T05:58:49;100921.44;;;0.56;72.10
9695;BME280;4690;52.422;13.486;2022-12-13T06:01:15;100925.81;;;0.31;72.48
9695;BME280;4690;52.422;13.486;2022-12-13T06:03:42;100927.81;;;0.29;72.95
9695;BME280;4690;52.422;13.486;2022-12-13T06:06:10;100921.66;;;0.18;72.86
9695;BME280;4690;52.422;13.486;2022-12-13T06:08:37;100925.59;;;0.06;73.62
9695;BME280;4690;52.422;13.486;2022-12-13T06:11:05;100922.75;;;0.08;74.24
9695;BME280;4690;52.422;13.486;2022-12-13T06:13:31;100920.50;;;0.21;73.56
9695;BME280;4690;52.422;13.486;2022-12-13T06:16:05;100918.53;;;0.23;73.30
9695;BME280;4690;52.422;13.486;2022-12-13T06:18:33;100925.13;;;0.29;73.44
9695;BME280;4690;52.422;13.486;2022-12-13T06:21:03;100926.44;;;0.25;74.11
9695;BME280;4690;52.422;13.486;2022-12-13T06:23:31;100928.50;;;0.31;72.82
9695;BME280;4690;52.422;13.486;2022-12-13T06:25:57;100918.94;;;0.36;73.60
9695;BME280;4690;52.422;13.486;2022-12-13T06:28:23;100928.66;;;0.11;73.79
9695;BME280;4690;52.422;13.486;2022-12-13T06:30:49;100932.50;;;-0.09;74.59
9695;BME280;4690;52.422;13.486;2022-12-13T06:33:19;100929.19;;;-0.03;74.26
9695;BME280;4690;52.422;13.486;2022-12-13T06:35:45;100931.75;;;-0.19;75.04
9695;BME280;4690;52.422;13.486;2022-12-13T06:38:12;100941.81;;;-0.21;75.67
9695;BME280;4690;52.422;13.486;2022-12-13T06:40:38;100936.44;;;-0.04;74.87
9695;BME280;4690;52.422;13.486;2022-12-13T06:43:05;100945.84;;;-0.08;75.43
9695;BME280;4690;52.422;13.486;2022-12-13T06:45:30;100952.38;;;-0.10;74.85
9695;BME280;4690;52.422;13.486;2022-12-13T06:47:57;100948.91;;;-0.20;74.84
9695;BME280;4690;52.422;13.486;2022-12-13T06:50:23;100955.09;;;-0.38;75.49
9695;BME280;4690;52.422;13.486;2022-12-13T06:52:48;100961.78;;;-0.42;75.97
9695;BME280;4690;52.422;13.486;2022-12-13T06:55:14;100962.22;;;-0.19;75.53
9695;BME280;4690;52.422;13.486;2022-12-13T06:57:41;100965.63;;;-0.17;75.02
9695;BME280;4690;52.422;13.486;2022-12-13T07:00:09;100965.34;;;-0.24;75.10
9695;BME280;4690;52.422;13.486;2022-12-13T07:02:35;100968.53;;;-0.28;76.27
9695;BME280;4690;52.422;13.486;2022-12-13T07:05:02;100969.47;;;-0.19;75.83
9695;BME280;4690;52.422;13.486;2022-12-13T07:07:28;100965.22;;;-0.04;74.59
9695;BME280;4690;52.422;13.486;2022-12-13T07:09:54;100960.94;;;0.03;74.79
9695;BME280;4690;52.422;13.486;2022-12-13T07:12:20;100970.09;;;-0.08;75.09
9695;BME280;4690;52.422;13.486;2022-12-13T07:14:46;100968.00;;;-0.14;75.28
9695;BME280;4690;52.422;13.486;2022-12-13T07:17:12;100969.16;;;0.02;74.53
9695;BME280;4690;52.422;13.486;2022-12-13T07:19:38;100970.53;;;0.06;75.37
9695;BME280;4690;52.422;13.486;2022-12-13T07:22:04;100970.03;;;0.20;73.45
9695;BME280;4690;52.422;13.486;2022-12-13T07:24:30;100972.06;;;0.08;73.85
9695;BME280;4690;52.422;13.486;2022-12-13T07:26:56;100979.56;;;0.14;73.91
9695;BME280;4690;52.422;13.486;2022-12-13T07:29:21;100974.53;;;0.19;73.70
9695;BME280;4690;52.422;13.486;2022-12-13T07:31:47;100975.47;;;0.10;74.36
9695;BME280;4690;52.422;13.486;2022-12-13T07:34:13;100985.56;;;0.08;74.71
9695;BME280;4690;52.422;13.486;2022-12-13T07:36:39;100983.34;;;0.04;73.92
9695;BME280;4690;52.422;13.486;2022-12-13T07:39:04;100989.47;;;-0.04;75.23
9695;BME280;4690;52.422;13.486;2022-12-13T07:41:30;100987.81;;;-0.33;75.52
9695;BME280;4690;52.422;13.486;2022-12-13T07:43:57;100986.66;;;-0.30;76.09
9695;BME280;4690;52.422;13.486;2022-12-13T07:46:24;100986.91;;;-0.24;75.83
9695;BME280;4690;52.422;13.486;2022-12-13T07:48:49;100983.56;;;-0.08;75.81
9695;BME280;4690;52.422;13.486;2022-12-13T07:51:15;100990.28;;;0.06;75.27
9695;BME280;4690;52.422;13.486;2022-12-13T07:53:41;100985.94;;;0.13;74.43
9695;BME280;4690;52.422;13.486;2022-12-13T07:56:10;100997.25;;;0.17;74.90
9695;BME280;4690;52.422;13.486;2022-12-13T07:58:37;100992.25;;;0.04;74.60
9695;BME280;4690;52.422;13.486;2022-12-13T08:01:06;101000.81;;;0.17;74.52
9695;BME280;4690;52.422;13.486;2022-12-13T08:03:36;100998.50;;;0.22;74.09
9695;BME280;4690;52.422;13.486;2022-12-13T08:06:09;101000.72;;;0.09;74.76
9695;BME280;4690;52.422;13.486;2022-12-13T08:08:36;100997.25;;;-0.01;74.81
9695;BME280;4690;52.422;13.486;2022-12-13T08:11:08;101001.03;;;0.06;74.62
9695;BME280;4690;52.422;13.486;2022-12-13T08:13:35;101007.59;;;0.04;74.75
9695;BME280;4690;52.422;13.486;2022-12-13T08:16:07;101008.72;;;0.01;74.73
9695;BME280;4690;52.422;13.486;2022-12-13T08:18:34;101015.03;;;-0.08;74.94
9695;BME280;4690;52.422;13.486;2022-12-13T08:21:02;101011.13;;;0.04;75.16
9695;BME280;4690;52.422;13.486;2022-12-13T08:23:31;101009.78;;;0.08;74.28
9695;BME280;4690;52.422;13.486;2022-12-13T08:25:59;101009.13;;;0.06;74.71
9695;BME280;4690;52.422;13.486;2022-12-13T08:28:25;101007.72;;;0.02;74.32
9695;BME280;4690;52.422;13.486;2022-12-13T08:30:52;101002.19;;;0.04;74.56
9695;BME280;4690;52.422;13.486;2022-12-13T08:33:19;101009.13;;;0.24;74.09
9695;BME280;4690;52.422;13.486;2022-12-13T08:35:46;101011.22;;;0.48;73.38
9695;BME280;4690;52.422;13.486;2022-12-13T08:38:12;101019.59;;;0.63;72.63
9695;BME280;4690;52.422;13.486;2022-12-13T08:40:39;101015.22;;;0.44;73.11
9695;BME280;4690;52.422;13.486;2022-12-13T08:43:05;101024.09;;;0.54;72.61
9695;BME280;4690;52.422;13.486;2022-12-13T08:45:31;101016.47;;;0.32;72.90
9695;BME280;4690;52.422;13.486;2022-12-13T08:48:00;101016.53;;;0.40;73.58
9695;BME280;4690;52.422;13.486;2022-12-13T08:50:28;101024.22;;;0.53;72.37
9695;BME280;4690;52.422;13.486;2022-12-13T08:52:55;101029.56;;;0.62;73.06
9695;BME280;4690;52.422;13.486;2022-12-13T08:55:20;101037.25;;;0.57;71.71
9695;BME280;4690;52.422;13.486;2022-12-13T08:57:46;101025.75;;;0.73;72.03
9695;BME280;4690;52.422;13.486;2022-12-13T09:00:16;101027.91;;;0.70;71.52
9695;BME280;4690;52.422;13.486;2022-12-13T09:02:42;101028.69;;;0.80;71.22
9695;BME280;4690;52.422;13.486;2022-12-13T09:05:10;101027.34;;;0.84;71.65
9695;BME280;4690;52.422;13.486;2022-12-13T09:07:37;101032.34;;;0.97;71.08
9695;BME280;4690;52.422;13.486;2022-12-13T09:10:09;101030.63;;;0.96;71.35
9695;BME280;4690;52.422;13.486;2022-12-13T09:12:35;101031.19;;;0.99;70.38
9695;BME280;4690;52.422;13.486;2022-12-13T09:15:00;101027.69;;;1.07;70.21
9695;BME280;4690;52.422;13.486;2022-12-13T09:17:26;101025.22;;;0.87;70.84
9695;BME280;4690;52.422;13.486;2022-12-13T09:19:52;101030.19;;;1.00;70.49
9695;BME280;4690;52.422;13.486;2022-12-13T09:22:18;101030.53;;;0.79;70.15
9695;BME280;4690;52.422;13.486;2022-12-13T09:24:46;101025.41;;;0.94;70.52
9695;BME280;4690;52.422;13.486;2022-12-13T09:27:11;101028.00;;;1.04;70.73
9695;BME280;4690;52.422;13.486;2022-12-13T09:29:37;101031.84;;;1.19;70.52
9695;BME280;4690;52.422;13.486;2022-12-13T09:32:04;101039.88;;;1.37;69.29
9695;BME280;4690;52.422;13.486;2022-12-13T09:34:30;101030.63;;;1.14;69.59
9695;BME280;4690;52.422;13.486;2022-12-13T09:36:57;101034.22;;;1.22;69.66
9695;BME280;4690;52.422;13.486;2022-12-13T09:39:23;101036.31;;;1.37;69.02
9695;BME280;4690;52.422;13.486;2022-12-13T09:41:56;101030.88;;;1.63;67.78
9695;BME280;4690;52.422;13.486;2022-12-13T09:44:35;101027.81;;;1.49;67.86
9695;BME280;4690;52.422;13.486;2022-12-13T09:47:11;101020.69;;;1.48;67.50
9695;BME280;4690;52.422;13.486;2022-12-13T09:49:43;101033.09;;;1.33;68.28
9695;BME280;4690;52.422;13.486;2022-12-13T09:52:15;101023.56;;;1.47;67.69
9695;BME280;4690;52.422;13.486;2022-12-13T09:54:43;101024.97;;;1.59;67.36
9695;BME280;4690;52.422;13.486;2022-12-13T09:57:28;101022.69;;;1.38;69.03
9695;BME280;4690;52.422;13.486;2022-12-13T09:59:55;101017.94;;;1.40;68.63
9695;BME280;4690;52.422;13.486;2022-12-13T10:02:28;101026.09;;;1.48;68.05
9695;BME280;4690;52.422;13.486;2022-12-13T10:05:35;101022.91;;;1.53;67.54
9695;BME280;4690;52.422;13.486;2022-12-13T10:08:24;101017.94;;;1.66;67.13
9695;BME280;4690;52.422;13.486;2022-12-13T10:10:52;101023.91;;;1.86;66.89
9695;BME280;4690;52.422;13.486;2022-12-13T10:21:54;101023.75;;;1.53;67.64
9695;BME280;4690;52.422;13.486;2022-12-13T10:24:23;101037.72;;;1.49;67.81
9695;BME280;4690;52.422;13.486;2022-12-13T10:26:52;101030.69;;;1.22;68.23
9695;BME280;4690;52.422;13.486;2022-12-13T10:29:19;101014.09;;;0.91;69.13
9695;BME280;4690;52.422;13.486;2022-12-13T10:31:52;101013.13;;;0.74;70.49
9695;BME280;4690;52.422;13.486;2022-12-13T10:34:26;101012.88;;;0.85;70.69
9695;BME280;4690;52.422;13.486;2022-12-13T10:36:52;101003.44;;;0.89;69.22
9695;BME280;4690;52.422;13.486;2022-12-13T10:39:42;101012.44;;;0.98;69.18
9695;BME280;4690;52.422;13.486;2022-12-13T10:42:17;101002.22;;;1.09;69.15
9695;BME280;4690;52.422;13.486;2022-12-13T10:44:43;101000.91;;;1.40;68.62
9695;BME280;4690;52.422;13.486;2022-12-13T10:47:16;101004.91;;;1.27;68.06
9695;BME280;4690;52.422;13.486;2022-12-13T10:49:59;100999.59;;;1.44;68.23
9695;BME280;4690;52.422;13.486;2022-12-13T10:52:31;100995.19;;;1.43;67.68
9695;BME280;4690;52.422;13.486;2022-12-13T10:55:05;100998.53;;;1.37;67.68
9695;BME280;4690;52.422;13.486;2022-12-13T10:57:33;100993.28;;;1.35;67.36
9695;BME280;4690;52.422;13.486;2022-12-13T10:59:59;101005.00;;;1.52;67.87
9695;BME280;4690;52.422;13.486;2022-12-13T11:02:37;101002.63;;;1.49;66.96
9695;BME280;4690;52.422;13.486;2022-12-13T11:05:28;100992.66;;;1.41;66.91
9695;BME280;4690;52.422;13.486;2022-12-13T11:07:54;100988.19;;;1.32;67.05
9695;BME280;4690;52.422;13.486;2022-12-13T11:10:27;100996.63;;;1.29;67.79
9695;BME280;4690;52.422;13.486;2022-12-13T11:13:04;101004.34;;;1.50;67.59
9695;BME280;4690;52.422;13.486;2022-12-13T11:15:34;100993.22;;;1.53;66.76
9695;BME280;4690;52.422;13.486;2022-12-13T11:18:09;100995.63;;;1.64;66.98
9695;BME280;4690;52.422;13.486;2022-12-13T11:20:59;100997.69;;;1.78;65.86
9695;BME280;4690;52.422;13.486;2022-12-13T11:23:32;100998.09;;;1.57;65.45
9695;BME280;4690;52.422;13.486;2022-12-13T11:26:08;100997.44;;;1.21;66.95
9695;BME280;4690;52.422;13.486;2022-12-13T11:32:26;100991.88;;;1.57;66.36
9695;BME280;4690;52.422;13.486;2022-12-13T11:37:27;100992.13;;;1.72;65.42
9695;BME280;4690;52.422;13.486;2022-12-13T11:40:09;100983.88;;;1.82;65.22
9695;BME280;4690;52.422;13.486;2022-12-13T11:45:25;100983.88;;;1.90;64.84
9695;BME280;4690;52.422;13.486;2022-12-13T11:50:47;100979.53;;;2.05;64.10
9695;BME280;4690;52.422;13.486;2022-12-13T11:56:30;100986.34;;;2.26;63.69
9695;BME280;4690;52.422;13.486;2022-12-13T12:04:53;100994.22;;;1.94;63.60
9695;BME280;4690;52.422;13.486;2022-12-13T12:09:57;100994.16;;;1.78;64.83
9695;BME280;4690;52.422;13.486;2022-12-13T12:12:32;100999.56;;;1.78;64.72
9695;BME280;4690;52.422;13.486;2022-12-13T12:15:31;100988.91;;;1.76;65.13
9695;BME280;4690;52.422;13.486;2022-12-13T12:17:58;100991.44;;;1.70;65.09
9695;BME280;4690;52.422;13.486;2022-12-13T12:26:52;100985.06;;;1.87;64.19
9695;BME280;4690;52.422;13.486;2022-12-13T12:45:09;100987.97;;;1.51;65.39
9695;BME280;4690;52.422;13.486;2022-12-13T12:50:31;100986.34;;;1.67;63.91
9695;BME280;4690;52.422;13.486;2022-12-13T12:53:15;100983.19;;;1.11;66.38
9695;BME280;4690;52.422;13.486;2022-12-13T12:58:55;100977.16;;;1.51;65.97
9695;BME280;4690;52.422;13.486;2022-12-13T13:01:48;100987.34;;;1.66;65.57
9695;BME280;4690;52.422;13.486;2022-12-13T13:04:24;100992.44;;;1.77;64.84
9695;BME280;4690;52.422;13.486;2022-12-13T13:07:03;100990.06;;;1.74;64.49
9695;BME280;4690;52.422;13.486;2022-12-13T13:09:33;100999.84;;;1.67;65.01
9695;BME280;4690;52.422;13.486;2022-12-13T13:12:04;100997.13;;;1.59;64.57
9695;BME280;4690;52.422;13.486;2022-12-13T13:14:34;100998.31;;;1.64;65.03
9695;BME280;4690;52.422;13.486;2022-12-13T13:19:45;101000.56;;;1.77;64.70
9695;BME280;4690;52.422;13.486;2022-12-13T13:22:35;100996.38;;;1.48;64.50
9695;BME280;4690;52.422;13.486;2022-12-13T13:27:41;100992.03;;;1.21;65.82
9695;BME280;4690;52.422;13.486;2022-12-13T13:30:27;100991.50;;;1.18;66.00
9695;BME280;4690;52.422;13.486;2022-12-13T13:32:56;100995.31;;;1.33;65.65
9695;BME280;4690;52.422;13.486;2022-12-13T13:38:03;100991.34;;;1.19;66.27
9695;BME280;4690;52.422;13.486;2022-12-13T13:40:37;100988.53;;;1.29;65.75
9695;BME280;4690;52.422;13.486;2022-12-13T14:00:17;101005.00;;;1.18;65.69
9695;BME280;4690;52.422;13.486;2022-12-13T14:06:26;100999.41;;;1.45;65.09
9695;BME280;4690;52.422;13.486;2022-12-13T14:18:36;100987.13;;;0.91;65.92
9695;BME280;4690;52.422;13.486;2022-12-13T14:21:45;100989.53;;;0.76;67.21
9695;BME280;4690;52.422;13.486;2022-12-13T14:29:52;100987.06;;;1.08;66.40
9695;BME280;4690;52.422;13.486;2022-12-13T14:32:24;100988.28;;;0.88;66.63
9695;BME280;4690;52.422;13.486;2022-12-13T14:34:52;100987.00;;;1.00;66.94
9695;BME280;4690;52.422;13.486;2022-12-13T14:37:29;100991.28;;;1.11;66.24
9695;BME280;4690;52.422;13.486;2022-12-13T14:39:57;100993.47;;;1.07;65.97
9695;BME280;4690;52.422;13.486;2022-12-13T14:42:32;100992.97;;;1.12;66.22
9695;BME280;4690;52.422;13.486;2022-12-13T14:45:37;100992.19;;;1.20;66.22
9695;BME280;4690;52.422;13.486;2022-12-13T14:48:11;100995.84;;;1.10;65.78
9695;BME280;4690;52.422;13.486;2022-12-13T14:50:42;100990.28;;;1.12;66.04
9695;BME280;4690;52.422;13.486;2022-12-13T14:53:39;100994.38;;;1.16;66.11
9695;BME280;4690;52.422;13.486;2022-12-13T14:56:11;100999.19;;;1.30;65.77
9695;BME280;4690;52.422;13.486;2022-12-13T14:58:38;100995.69;;;1.38;65.19
9695;BME280;4690;52.422;13.486;2022-12-13T15:03:51;100999.75;;;1.42;65.41
9695;BME280;4690;52.422;13.486;2022-12-13T15:06:19;100992.00;;;1.47;64.91
9695;BME280;4690;52.422;13.486;2022-12-13T15:08:46;100989.25;;;1.39;65.54
9695;BME280;4690;52.422;13.486;2022-12-13T15:11:13;100986.38;;;1.41;65.94
9695;BME280;4690;52.422;13.486;2022-12-13T15:13:47;100989.13;;;1.49;65.23
9695;BME280;4690;52.422;13.486;2022-12-13T15:16:23;100988.31;;;1.56;65.05
9695;BME280;4690;52.422;13.486;2022-12-13T15:19:17;100995.91;;;1.53;65.39
9695;BME280;4690;52.422;13.486;2022-12-13T15:22:13;100997.38;;;1.39;65.32
9695;BME280;4690;52.422;13.486;2022-12-13T15:24:42;100998.38;;;1.38;65.43
9695;BME280;4690;52.422;13.486;2022-12-13T15:27:16;101000.06;;;1.39;65.97
9695;BME280;4690;52.422;13.486;2022-12-13T15:29:43;100994.66;;;1.39;65.87
9695;BME280;4690;52.422;13.486;2022-12-13T15:32:15;100999.00;;;1.32;65.62
9695;BME280;4690;52.422;13.486;2022-12-13T15:34:45;100995.84;;;1.10;66.86
9695;BME280;4690;52.422;13.486;2022-12-13T15:37:23;100996.84;;;1.09;66.80
9695;BME280;4690;52.422;13.486;2022-12-13T15:39:54;100991.13;;;1.12;67.19